sensor_id;sensor_type;location;lat;lon;timestamp;P1;durP1;ratioP1;P2;durP2;ratioP2
4889;SDS011;2459;42.268;23.112;2023-03-19T00:01:45;15.93;;;7.17;;
4889;SDS011;2459;42.268;23.112;2023-03-19T00:04:12;14.80;;;7.77;;
4889;SDS011;2459;42.268;23.112;2023-03-19T00:06:40;18.80;;;9.33;;
4889;SDS011;2459;42.268;23.112;2023-03-19T00:09:06;14.40;;;8.40;;
4889;SDS011;2459;42.268;23.112;2023-03-19T00:11:33;24.63;;;10.10;;
4889;SDS011;2459;42.268;23.112;2023-03-19T00:14:00;24.73;;;10.80;;
4889;SDS011;2459;42.268;23.112;2023-03-19T00:16:28;16.50;;;8.37;;
4889;SDS011;2459;42.268;23.112;2023-03-19T00:18:54;18.27;;;9.17;;
4889;SDS011;2459;42.268;23.112;2023-03-19T00:21:21;16.37;;;9.47;;
4889;SDS011;2459;42.268;23.112;2023-03-19T00:23:48;20.73;;;10.37;;
4889;SDS011;2459;42.268;23.112;2023-03-19T00:26:14;27.10;;;11.07;;
4889;SDS011;2459;42.268;23.112;2023-03-19T00:28:41;21.07;;;10.40;;
4889;SDS011;2459;42.268;23.112;2023-03-19T00:31:08;32.90;;;11.07;;
4889;SDS011;2459;42.268;23.112;2023-03-19T00:33:37;31.47;;;13.10;;
4889;SDS011;2459;42.268;23.112;2023-03-19T00:36:04;17.70;;;8.80;;
4889;SDS011;2459;42.268;23.112;2023-03-19T00:38:32;16.50;;;7.47;;
4889;SDS011;2459;42.268;23.112;2023-03-19T00:40:58;7.10;;;5.87;;
4889;SDS011;2459;42.268;23.112;2023-03-19T00:43:25;20.17;;;8.70;;
4889;SDS011;2459;42.268;23.112;2023-03-19T00:45:52;14.30;;;6.10;;
4889;SDS011;2459;42.268;23.112;2023-03-19T00:48:19;16.27;;;7.23;;
4889;SDS011;2459;42.268;23.112;2023-03-19T00:50:47;22.70;;;9.10;;
4889;SDS011;2459;42.268;23.112;2023-03-19T00:53:14;19.10;;;9.70;;
4889;SDS011;2459;42.268;23.112;2023-03-19T00:55:41;19.37;;;7.80;;
4889;SDS011;2459;42.268;23.112;2023-03-19T00:58:07;22.73;;;8.77;;
4889;SDS011;2459;42.268;23.112;2023-03-19T01:00:34;19.13;;;8.53;;
4889;SDS011;2459;42.268;23.112;2023-03-19T01:03:01;27.63;;;10.60;;
4889;SDS011;2459;42.268;23.112;2023-03-19T01:05:28;40.27;;;14.73;;
4889;SDS011;2459;42.268;23.112;2023-03-19T01:07:56;38.23;;;12.17;;
4889;SDS011;2459;42.268;23.112;2023-03-19T01:10:23;34.50;;;9.97;;
4889;SDS011;2459;42.268;23.112;2023-03-19T01:12:50;35.90;;;12.50;;
4889;SDS011;2459;42.268;23.112;2023-03-19T01:15:17;22.23;;;10.33;;
4889;SDS011;2459;42.268;23.112;2023-03-19T01:17:43;28.33;;;12.30;;
4889;SDS011;2459;42.268;23.112;2023-03-19T01:20:10;45.33;;;11.67;;
4889;SDS011;2459;42.268;23.112;2023-03-19T01:22:39;34.60;;;10.67;;
4889;SDS011;2459;42.268;23.112;2023-03-19T01:25:08;33.90;;;12.40;;
4889;SDS011;2459;42.268;23.112;2023-03-19T01:27:35;24.10;;;8.60;;
4889;SDS011;2459;42.268;23.112;2023-03-19T01:30:02;31.03;;;11.97;;
4889;SDS011;2459;42.268;23.112;2023-03-19T01:32:29;44.63;;;12.03;;
4889;SDS011;2459;42.268;23.112;2023-03-19T01:34:55;25.40;;;8.67;;
4889;SDS011;2459;42.268;23.112;2023-03-19T01:37:22;26.13;;;9.73;;
4889;SDS011;2459;42.268;23.112;2023-03-19T01:39:48;29.67;;;11.30;;
4889;SDS011;2459;42.268;23.112;2023-03-19T01:42:16;26.43;;;11.40;;
4889;SDS011;2459;42.268;23.112;2023-03-19T01:44:43;38.67;;;11.70;;
4889;SDS011;2459;42.268;23.112;2023-03-19T01:47:13;30.37;;;12.03;;
4889;SDS011;2459;42.268;23.112;2023-03-19T01:49:41;21.73;;;9.43;;
4889;SDS011;2459;42.268;23.112;2023-03-19T01:52:10;19.83;;;8.23;;
4889;SDS011;2459;42.268;23.112;2023-03-19T01:54:37;44.33;;;9.93;;
4889;SDS011;2459;42.268;23.112;2023-03-19T01:57:04;21.13;;;9.00;;
4889;SDS011;2459;42.268;23.112;2023-03-19T01:59:33;24.47;;;11.07;;
4889;SDS011;2459;42.268;23.112;2023-03-19T02:02:02;15.80;;;7.33;;
4889;SDS011;2459;42.268;23.112;2023-03-19T02:04:30;21.07;;;9.00;;
4889;SDS011;2459;42.268;23.112;2023-03-19T02:06:57;19.10;;;8.70;;
4889;SDS011;2459;42.268;23.112;2023-03-19T02:09:25;14.67;;;8.17;;
4889;SDS011;2459;42.268;23.112;2023-03-19T02:11:52;32.70;;;9.50;;
4889;SDS011;2459;42.268;23.112;2023-03-19T02:14:20;25.50;;;8.63;;
4889;SDS011;2459;42.268;23.112;2023-03-19T02:16:48;17.27;;;8.33;;
4889;SDS011;2459;42.268;23.112;2023-03-19T02:19:15;17.97;;;7.37;;
4889;SDS011;2459;42.268;23.112;2023-03-19T02:21:42;22.00;;;7.30;;
4889;SDS011;2459;42.268;23.112;2023-03-19T02:24:11;12.67;;;5.93;;
4889;SDS011;2459;42.268;23.112;2023-03-19T02:26:42;22.93;;;6.10;;
4889;SDS011;2459;42.268;23.112;2023-03-19T02:29:10;16.30;;;6.70;;
4889;SDS011;2459;42.268;23.112;2023-03-19T02:31:36;12.90;;;5.10;;
4889;SDS011;2459;42.268;23.112;2023-03-19T02:34:03;11.53;;;5.43;;
4889;SDS011;2459;42.268;23.112;2023-03-19T02:36:31;8.37;;;5.60;;
4889;SDS011;2459;42.268;23.112;2023-03-19T02:38:59;29.17;;;9.03;;
4889;SDS011;2459;42.268;23.112;2023-03-19T02:41:27;12.60;;;5.73;;
4889;SDS011;2459;42.268;23.112;2023-03-19T02:43:56;8.13;;;5.37;;
4889;SDS011;2459;42.268;23.112;2023-03-19T02:46:23;14.50;;;8.87;;
4889;SDS011;2459;42.268;23.112;2023-03-19T02:48:50;25.30;;;8.50;;
4889;SDS011;2459;42.268;23.112;2023-03-19T02:51:16;14.67;;;5.93;;
4889;SDS011;2459;42.268;23.112;2023-03-19T02:53:44;13.23;;;6.27;;
4889;SDS011;2459;42.268;23.112;2023-03-19T02:56:10;21.17;;;8.57;;
4889;SDS011;2459;42.268;23.112;2023-03-19T02:58:37;15.33;;;6.27;;
4889;SDS011;2459;42.268;23.112;2023-03-19T03:01:05;15.80;;;6.60;;
4889;SDS011;2459;42.268;23.112;2023-03-19T03:03:31;15.13;;;6.00;;
4889;SDS011;2459;42.268;23.112;2023-03-19T03:05:58;14.73;;;6.83;;
4889;SDS011;2459;42.268;23.112;2023-03-19T03:08:24;10.37;;;5.50;;
4889;SDS011;2459;42.268;23.112;2023-03-19T03:10:52;6.93;;;4.60;;
4889;SDS011;2459;42.268;23.112;2023-03-19T03:13:18;10.43;;;5.13;;
4889;SDS011;2459;42.268;23.112;2023-03-19T03:15:45;16.33;;;7.13;;
4889;SDS011;2459;42.268;23.112;2023-03-19T03:18:13;11.37;;;4.23;;
4889;SDS011;2459;42.268;23.112;2023-03-19T03:20:40;8.20;;;5.47;;
4889;SDS011;2459;42.268;23.112;2023-03-19T03:23:06;10.43;;;5.10;;
4889;SDS011;2459;42.268;23.112;2023-03-19T03:25:34;12.27;;;6.70;;
4889;SDS011;2459;42.268;23.112;2023-03-19T03:28:00;13.73;;;5.97;;
4889;SDS011;2459;42.268;23.112;2023-03-19T03:30:27;28.73;;;4.80;;
4889;SDS011;2459;42.268;23.112;2023-03-19T03:32:53;11.33;;;5.73;;
4889;SDS011;2459;42.268;23.112;2023-03-19T03:35:22;20.73;;;7.13;;
4889;SDS011;2459;42.268;23.112;2023-03-19T03:37:48;49.67;;;14.67;;
4889;SDS011;2459;42.268;23.112;2023-03-19T03:40:15;77.63;;;23.40;;
4889;SDS011;2459;42.268;23.112;2023-03-19T03:42:42;28.33;;;11.40;;
4889;SDS011;2459;42.268;23.112;2023-03-19T03:45:09;19.97;;;9.80;;
4889;SDS011;2459;42.268;23.112;2023-03-19T03:47:36;24.10;;;9.10;;
4889;SDS011;2459;42.268;23.112;2023-03-19T03:50:03;19.97;;;9.63;;
4889;SDS011;2459;42.268;23.112;2023-03-19T03:52:32;17.93;;;9.17;;
4889;SDS011;2459;42.268;23.112;2023-03-19T03:54:59;14.47;;;7.10;;
4889;SDS011;2459;42.268;23.112;2023-03-19T03:57:25;35.50;;;9.27;;
4889;SDS011;2459;42.268;23.112;2023-03-19T03:59:52;10.10;;;6.93;;
4889;SDS011;2459;42.268;23.112;2023-03-19T04:02:19;23.63;;;8.50;;
4889;SDS011;2459;42.268;23.112;2023-03-19T04:04:46;16.90;;;7.40;;
4889;SDS011;2459;42.268;23.112;2023-03-19T04:07:12;43.40;;;15.40;;
4889;SDS011;2459;42.268;23.112;2023-03-19T04:09:41;24.03;;;10.70;;
4889;SDS011;2459;42.268;23.112;2023-03-19T04:12:08;9.77;;;5.10;;
4889;SDS011;2459;42.268;23.112;2023-03-19T04:14:35;19.60;;;8.47;;
4889;SDS011;2459;42.268;23.112;2023-03-19T04:17:01;21.33;;;8.60;;
4889;SDS011;2459;42.268;23.112;2023-03-19T04:19:29;21.60;;;6.90;;
4889;SDS011;2459;42.268;23.112;2023-03-19T04:21:56;23.20;;;8.73;;
4889;SDS011;2459;42.268;23.112;2023-03-19T04:24:22;13.30;;;6.10;;
4889;SDS011;2459;42.268;23.112;2023-03-19T04:26:51;6.57;;;4.33;;
4889;SDS011;2459;42.268;23.112;2023-03-19T04:29:17;8.87;;;4.27;;
4889;SDS011;2459;42.268;23.112;2023-03-19T04:31:44;25.53;;;7.37;;
4889;SDS011;2459;42.268;23.112;2023-03-19T04:34:11;21.47;;;9.33;;
4889;SDS011;2459;42.268;23.112;2023-03-19T04:36:37;20.83;;;10.40;;
4889;SDS011;2459;42.268;23.112;2023-03-19T04:39:04;32.03;;;10.83;;
4889;SDS011;2459;42.268;23.112;2023-03-19T04:41:30;50.53;;;17.33;;
4889;SDS011;2459;42.268;23.112;2023-03-19T04:43:58;44.90;;;15.83;;
4889;SDS011;2459;42.268;23.112;2023-03-19T04:46:25;32.30;;;13.00;;
4889;SDS011;2459;42.268;23.112;2023-03-19T04:48:52;40.27;;;15.67;;
4889;SDS011;2459;42.268;23.112;2023-03-19T04:51:18;25.57;;;8.80;;
4889;SDS011;2459;42.268;23.112;2023-03-19T04:53:45;19.43;;;9.20;;
4889;SDS011;2459;42.268;23.112;2023-03-19T04:56:13;33.37;;;13.80;;
4889;SDS011;2459;42.268;23.112;2023-03-19T04:58:40;23.63;;;10.70;;
4889;SDS011;2459;42.268;23.112;2023-03-19T05:01:08;53.90;;;20.17;;
4889;SDS011;2459;42.268;23.112;2023-03-19T05:03:35;18.53;;;9.77;;
4889;SDS011;2459;42.268;23.112;2023-03-19T05:06:01;17.00;;;9.70;;
4889;SDS011;2459;42.268;23.112;2023-03-19T05:08:28;20.97;;;9.70;;
4889;SDS011;2459;42.268;23.112;2023-03-19T05:10:55;22.83;;;9.50;;
4889;SDS011;2459;42.268;23.112;2023-03-19T05:13:21;33.97;;;10.57;;
4889;SDS011;2459;42.268;23.112;2023-03-19T05:15:48;41.97;;;14.87;;
4889;SDS011;2459;42.268;23.112;2023-03-19T05:18:19;27.63;;;11.47;;
4889;SDS011;2459;42.268;23.112;2023-03-19T05:20:46;31.00;;;10.80;;
4889;SDS011;2459;42.268;23.112;2023-03-19T05:23:13;26.83;;;10.30;;
4889;SDS011;2459;42.268;23.112;2023-03-19T05:25:40;26.50;;;12.10;;
4889;SDS011;2459;42.268;23.112;2023-03-19T05:28:06;23.47;;;10.23;;
4889;SDS011;2459;42.268;23.112;2023-03-19T05:30:33;30.87;;;15.47;;
4889;SDS011;2459;42.268;23.112;2023-03-19T05:33:00;27.10;;;13.73;;
4889;SDS011;2459;42.268;23.112;2023-03-19T05:35:29;30.37;;;13.83;;
4889;SDS011;2459;42.268;23.112;2023-03-19T05:37:56;27.33;;;12.70;;
4889;SDS011;2459;42.268;23.112;2023-03-19T05:40:22;55.50;;;16.30;;
4889;SDS011;2459;42.268;23.112;2023-03-19T05:42:49;37.23;;;15.40;;
4889;SDS011;2459;42.268;23.112;2023-03-19T05:45:16;31.50;;;15.20;;
4889;SDS011;2459;42.268;23.112;2023-03-19T05:47:42;26.70;;;12.10;;
4889;SDS011;2459;42.268;23.112;2023-03-19T05:50:10;34.37;;;15.17;;
4889;SDS011;2459;42.268;23.112;2023-03-19T05:52:38;28.63;;;13.90;;
4889;SDS011;2459;42.268;23.112;2023-03-19T05:55:05;29.00;;;14.20;;
4889;SDS011;2459;42.268;23.112;2023-03-19T05:57:32;36.20;;;17.53;;
4889;SDS011;2459;42.268;23.112;2023-03-19T05:59:58;32.77;;;14.37;;
4889;SDS011;2459;42.268;23.112;2023-03-19T06:02:25;28.90;;;13.80;;
4889;SDS011;2459;42.268;23.112;2023-03-19T06:04:52;28.13;;;13.40;;
4889;SDS011;2459;42.268;23.112;2023-03-19T06:07:19;21.87;;;12.17;;
4889;SDS011;2459;42.268;23.112;2023-03-19T06:09:47;34.20;;;15.20;;
4889;SDS011;2459;42.268;23.112;2023-03-19T06:12:13;23.40;;;13.20;;
4889;SDS011;2459;42.268;23.112;2023-03-19T06:14:40;21.70;;;10.90;;
4889;SDS011;2459;42.268;23.112;2023-03-19T06:17:07;24.27;;;12.20;;
4889;SDS011;2459;42.268;23.112;2023-03-19T06:19:33;26.93;;;13.40;;
4889;SDS011;2459;42.268;23.112;2023-03-19T06:22:00;35.17;;;13.20;;
4889;SDS011;2459;42.268;23.112;2023-03-19T06:24:27;29.87;;;13.10;;
4889;SDS011;2459;42.268;23.112;2023-03-19T06:26:56;34.80;;;15.43;;
4889;SDS011;2459;42.268;23.112;2023-03-19T06:29:24;33.83;;;16.00;;
4889;SDS011;2459;42.268;23.112;2023-03-19T06:31:51;31.70;;;14.60;;
4889;SDS011;2459;42.268;23.112;2023-03-19T06:34:17;38.37;;;16.10;;
4889;SDS011;2459;42.268;23.112;2023-03-19T06:36:44;39.13;;;15.20;;
4889;SDS011;2459;42.268;23.112;2023-03-19T06:39:10;34.93;;;17.00;;
4889;SDS011;2459;42.268;23.112;2023-03-19T06:41:37;52.57;;;16.37;;
4889;SDS011;2459;42.268;23.112;2023-03-19T06:44:06;40.83;;;17.50;;
4889;SDS011;2459;42.268;23.112;2023-03-19T06:46:32;41.80;;;15.43;;
4889;SDS011;2459;42.268;23.112;2023-03-19T06:48:59;35.03;;;17.03;;
4889;SDS011;2459;42.268;23.112;2023-03-19T06:51:26;46.87;;;16.97;;
4889;SDS011;2459;42.268;23.112;2023-03-19T06:53:52;48.93;;;16.47;;
4889;SDS011;2459;42.268;23.112;2023-03-19T06:56:19;41.53;;;18.20;;
4889;SDS011;2459;42.268;23.112;2023-03-19T06:58:46;52.63;;;16.07;;
4889;SDS011;2459;42.268;23.112;2023-03-19T07:01:14;46.43;;;15.43;;
4889;SDS011;2459;42.268;23.112;2023-03-19T07:03:40;51.20;;;15.53;;
4889;SDS011;2459;42.268;23.112;2023-03-19T07:06:07;45.30;;;15.17;;
4889;SDS011;2459;42.268;23.112;2023-03-19T07:08:33;66.53;;;17.40;;
4889;SDS011;2459;42.268;23.112;2023-03-19T07:11:02;43.00;;;15.67;;
4889;SDS011;2459;42.268;23.112;2023-03-19T07:13:29;61.57;;;20.43;;
4889;SDS011;2459;42.268;23.112;2023-03-19T07:15:55;75.23;;;19.57;;
4889;SDS011;2459;42.268;23.112;2023-03-19T07:18:23;40.10;;;15.50;;
4889;SDS011;2459;42.268;23.112;2023-03-19T07:20:50;29.80;;;13.23;;
4889;SDS011;2459;42.268;23.112;2023-03-19T07:23:17;45.23;;;12.90;;
4889;SDS011;2459;42.268;23.112;2023-03-19T07:25:43;17.20;;;7.70;;
4889;SDS011;2459;42.268;23.112;2023-03-19T07:28:11;16.87;;;8.77;;
4889;SDS011;2459;42.268;23.112;2023-03-19T07:30:38;18.97;;;7.97;;
4889;SDS011;2459;42.268;23.112;2023-03-19T07:33:04;16.23;;;6.03;;
4889;SDS011;2459;42.268;23.112;2023-03-19T07:35:32;27.10;;;6.07;;
4889;SDS011;2459;42.268;23.112;2023-03-19T07:37:59;23.70;;;8.00;;
4889;SDS011;2459;42.268;23.112;2023-03-19T07:40:26;27.40;;;8.40;;
4889;SDS011;2459;42.268;23.112;2023-03-19T07:42:53;24.07;;;9.30;;
4889;SDS011;2459;42.268;23.112;2023-03-19T07:45:19;26.53;;;10.40;;
4889;SDS011;2459;42.268;23.112;2023-03-19T07:47:47;29.67;;;8.13;;
4889;SDS011;2459;42.268;23.112;2023-03-19T07:50:15;20.63;;;9.77;;
4889;SDS011;2459;42.268;23.112;2023-03-19T07:52:45;40.30;;;10.00;;
4889;SDS011;2459;42.268;23.112;2023-03-19T07:55:12;32.63;;;11.90;;
4889;SDS011;2459;42.268;23.112;2023-03-19T07:57:38;31.47;;;11.10;;
4889;SDS011;2459;42.268;23.112;2023-03-19T08:00:05;46.23;;;11.40;;
4889;SDS011;2459;42.268;23.112;2023-03-19T08:02:32;31.33;;;9.80;;
4889;SDS011;2459;42.268;23.112;2023-03-19T08:04:59;30.83;;;11.23;;
4889;SDS011;2459;42.268;23.112;2023-03-19T08:07:26;27.73;;;10.63;;
4889;SDS011;2459;42.268;23.112;2023-03-19T08:09:54;33.17;;;10.47;;
4889;SDS011;2459;42.268;23.112;2023-03-19T08:12:21;30.60;;;11.10;;
4889;SDS011;2459;42.268;23.112;2023-03-19T08:14:48;34.10;;;10.90;;
4889;SDS011;2459;42.268;23.112;2023-03-19T08:17:14;39.63;;;13.47;;
4889;SDS011;2459;42.268;23.112;2023-03-19T08:19:41;19.07;;;8.70;;
4889;SDS011;2459;42.268;23.112;2023-03-19T08:22:07;16.23;;;6.47;;
4889;SDS011;2459;42.268;23.112;2023-03-19T08:24:34;28.43;;;7.73;;
4889;SDS011;2459;42.268;23.112;2023-03-19T08:27:02;27.60;;;10.53;;
4889;SDS011;2459;42.268;23.112;2023-03-19T08:29:29;22.63;;;9.80;;
4889;SDS011;2459;42.268;23.112;2023-03-19T08:31:55;33.00;;;9.90;;
4889;SDS011;2459;42.268;23.112;2023-03-19T08:34:22;22.67;;;6.60;;
4889;SDS011;2459;42.268;23.112;2023-03-19T08:36:49;14.73;;;6.10;;
4889;SDS011;2459;42.268;23.112;2023-03-19T08:39:15;15.63;;;6.50;;
4889;SDS011;2459;42.268;23.112;2023-03-19T08:41:42;12.97;;;5.30;;
4889;SDS011;2459;42.268;23.112;2023-03-19T08:44:10;11.93;;;5.17;;
4889;SDS011;2459;42.268;23.112;2023-03-19T08:46:36;13.50;;;6.33;;
4889;SDS011;2459;42.268;23.112;2023-03-19T08:49:03;14.63;;;5.83;;
4889;SDS011;2459;42.268;23.112;2023-03-19T08:51:29;9.93;;;5.50;;
4889;SDS011;2459;42.268;23.112;2023-03-19T08:53:56;11.10;;;5.00;;
4889;SDS011;2459;42.268;23.112;2023-03-19T08:56:23;18.77;;;6.40;;
4889;SDS011;2459;42.268;23.112;2023-03-19T08:58:49;22.10;;;7.33;;
4889;SDS011;2459;42.268;23.112;2023-03-19T09:01:17;16.23;;;5.33;;
4889;SDS011;2459;42.268;23.112;2023-03-19T09:03:44;25.30;;;8.23;;
4889;SDS011;2459;42.268;23.112;2023-03-19T09:06:11;12.53;;;5.20;;
4889;SDS011;2459;42.268;23.112;2023-03-19T09:08:38;9.00;;;4.57;;
4889;SDS011;2459;42.268;23.112;2023-03-19T09:11:05;17.30;;;6.70;;
4889;SDS011;2459;42.268;23.112;2023-03-19T09:13:32;13.53;;;6.40;;
4889;SDS011;2459;42.268;23.112;2023-03-19T09:15:58;13.63;;;4.93;;
4889;SDS011;2459;42.268;23.112;2023-03-19T09:18:26;20.17;;;5.67;;
4889;SDS011;2459;42.268;23.112;2023-03-19T09:20:53;13.40;;;5.30;;
4889;SDS011;2459;42.268;23.112;2023-03-19T09:23:20;8.37;;;5.00;;
4889;SDS011;2459;42.268;23.112;2023-03-19T09:25:47;11.30;;;5.20;;
4889;SDS011;2459;42.268;23.112;2023-03-19T09:28:14;9.60;;;4.03;;
4889;SDS011;2459;42.268;23.112;2023-03-19T09:30:40;12.40;;;4.90;;
4889;SDS011;2459;42.268;23.112;2023-03-19T09:33:07;14.37;;;5.63;;
4889;SDS011;2459;42.268;23.112;2023-03-19T09:35:35;10.63;;;4.40;;
4889;SDS011;2459;42.268;23.112;2023-03-19T09:38:04;7.93;;;4.57;;
4889;SDS011;2459;42.268;23.112;2023-03-19T09:40:33;10.47;;;4.83;;
4889;SDS011;2459;42.268;23.112;2023-03-19T09:43:03;9.00;;;3.90;;
4889;SDS011;2459;42.268;23.112;2023-03-19T09:45:31;3.20;;;2.30;;
4889;SDS011;2459;42.268;23.112;2023-03-19T09:47:59;3.80;;;2.67;;
4889;SDS011;2459;42.268;23.112;2023-03-19T09:50:28;3.50;;;2.47;;
4889;SDS011;2459;42.268;23.112;2023-03-19T09:53:00;5.00;;;3.70;;
4889;SDS011;2459;42.268;23.112;2023-03-19T09:55:30;8.37;;;4.80;;
4889;SDS011;2459;42.268;23.112;2023-03-19T09:57:59;9.00;;;3.90;;
4889;SDS011;2459;42.268;23.112;2023-03-19T10:00:27;6.77;;;4.27;;
4889;SDS011;2459;42.268;23.112;2023-03-19T10:02:55;4.87;;;3.10;;
4889;SDS011;2459;42.268;23.112;2023-03-19T10:05:25;9.20;;;4.73;;
4889;SDS011;2459;42.268;23.112;2023-03-19T10:07:56;7.30;;;4.13;;
4889;SDS011;2459;42.268;23.112;2023-03-19T10:10:43;7.07;;;3.40;;
4889;SDS011;2459;42.268;23.112;2023-03-19T10:13:12;9.80;;;3.75;;
4889;SDS011;2459;42.268;23.112;2023-03-19T10:15:40;41.38;;;15.05;;
4889;SDS011;2459;42.268;23.112;2023-03-19T10:18:09;4.40;;;2.30;;
4889;SDS011;2459;42.268;23.112;2023-03-19T10:20:42;3.10;;;2.73;;
4889;SDS011;2459;42.268;23.112;2023-03-19T10:23:26;2.60;;;2.40;;
4889;SDS011;2459;42.268;23.112;2023-03-19T10:25:56;4.85;;;2.60;;
4889;SDS011;2459;42.268;23.112;2023-03-19T10:28:24;9.95;;;2.30;;
4889;SDS011;2459;42.268;23.112;2023-03-19T10:30:52;3.65;;;2.78;;
4889;SDS011;2459;42.268;23.112;2023-03-19T10:33:21;2.97;;;2.05;;
4889;SDS011;2459;42.268;23.112;2023-03-19T10:35:48;3.15;;;2.38;;
4889;SDS011;2459;42.268;23.112;2023-03-19T10:38:18;3.15;;;2.65;;
4889;SDS011;2459;42.268;23.112;2023-03-19T10:40:47;5.15;;;3.00;;
4889;SDS011;2459;42.268;23.112;2023-03-19T10:43:18;4.15;;;3.22;;
4889;SDS011;2459;42.268;23.112;2023-03-19T10:45:46;3.38;;;2.58;;
4889;SDS011;2459;42.268;23.112;2023-03-19T10:48:14;20.85;;;2.80;;
4889;SDS011;2459;42.268;23.112;2023-03-19T10:50:42;2.08;;;1.75;;
4889;SDS011;2459;42.268;23.112;2023-03-19T10:53:20;3.88;;;1.73;;
4889;SDS011;2459;42.268;23.112;2023-03-19T10:55:52;8.50;;;2.90;;
4889;SDS011;2459;42.268;23.112;2023-03-19T10:58:21;3.13;;;2.83;;
4889;SDS011;2459;42.268;23.112;2023-03-19T11:00:49;6.00;;;3.75;;
4889;SDS011;2459;42.268;23.112;2023-03-19T11:03:26;10.25;;;3.00;;
4889;SDS011;2459;42.268;23.112;2023-03-19T11:06:02;7.13;;;3.33;;
4889;SDS011;2459;42.268;23.112;2023-03-19T11:08:29;7.57;;;4.28;;
4889;SDS011;2459;42.268;23.112;2023-03-19T11:10:59;7.78;;;3.47;;
4889;SDS011;2459;42.268;23.112;2023-03-19T11:13:27;5.78;;;3.95;;
4889;SDS011;2459;42.268;23.112;2023-03-19T11:15:54;6.85;;;3.42;;
4889;SDS011;2459;42.268;23.112;2023-03-19T11:18:23;6.63;;;3.60;;
4889;SDS011;2459;42.268;23.112;2023-03-19T11:20:52;6.25;;;3.90;;
4889;SDS011;2459;42.268;23.112;2023-03-19T11:23:20;8.40;;;4.03;;
4889;SDS011;2459;42.268;23.112;2023-03-19T11:25:48;7.03;;;3.97;;
4889;SDS011;2459;42.268;23.112;2023-03-19T11:28:16;7.85;;;4.22;;
4889;SDS011;2459;42.268;23.112;2023-03-19T11:30:47;6.63;;;3.67;;
4889;SDS011;2459;42.268;23.112;2023-03-19T11:36:03;4.13;;;2.45;;
4889;SDS011;2459;42.268;23.112;2023-03-19T11:38:34;4.00;;;3.05;;
4889;SDS011;2459;42.268;23.112;2023-03-19T11:41:05;6.80;;;3.83;;
4889;SDS011;2459;42.268;23.112;2023-03-19T11:49:10;8.75;;;3.38;;
4889;SDS011;2459;42.268;23.112;2023-03-19T11:51:41;14.00;;;2.92;;
4889;SDS011;2459;42.268;23.112;2023-03-19T11:54:13;3.35;;;2.35;;
4889;SDS011;2459;42.268;23.112;2023-03-19T11:56:43;3.00;;;2.70;;
4889;SDS011;2459;42.268;23.112;2023-03-19T11:59:15;5.50;;;2.75;;
4889;SDS011;2459;42.268;23.112;2023-03-19T12:02:02;6.57;;;2.72;;
4889;SDS011;2459;42.268;23.112;2023-03-19T12:04:58;3.17;;;2.08;;
4889;SDS011;2459;42.268;23.112;2023-03-19T12:07:29;3.90;;;1.40;;
4889;SDS011;2459;42.268;23.112;2023-03-19T12:10:01;2.55;;;2.10;;
4889;SDS011;2459;42.268;23.112;2023-03-19T12:12:29;2.13;;;1.80;;
4889;SDS011;2459;42.268;23.112;2023-03-19T12:15:02;1.40;;;1.30;;
4889;SDS011;2459;42.268;23.112;2023-03-19T12:17:36;0.90;;;0.90;;
4889;SDS011;2459;42.268;23.112;2023-03-19T12:22:52;7.93;;;2.42;;
4889;SDS011;2459;42.268;23.112;2023-03-19T12:25:24;2.03;;;1.75;;
4889;SDS011;2459;42.268;23.112;2023-03-19T12:27:54;3.08;;;1.75;;
4889;SDS011;2459;42.268;23.112;2023-03-19T12:30:23;1.70;;;1.35;;
4889;SDS011;2459;42.268;23.112;2023-03-19T12:33:01;2.78;;;2.03;;
4889;SDS011;2459;42.268;23.112;2023-03-19T12:35:33;2.40;;;1.50;;
4889;SDS011;2459;42.268;23.112;2023-03-19T12:38:03;4.00;;;2.28;;
4889;SDS011;2459;42.268;23.112;2023-03-19T12:40:31;7.03;;;2.00;;
4889;SDS011;2459;42.268;23.112;2023-03-19T12:43:01;2.92;;;2.70;;
4889;SDS011;2459;42.268;23.112;2023-03-19T12:45:30;4.40;;;2.08;;
4889;SDS011;2459;42.268;23.112;2023-03-19T12:47:58;5.60;;;3.00;;
4889;SDS011;2459;42.268;23.112;2023-03-19T12:50:25;3.50;;;2.50;;
4889;SDS011;2459;42.268;23.112;2023-03-19T12:52:53;1.65;;;1.55;;
4889;SDS011;2459;42.268;23.112;2023-03-19T12:55:24;4.38;;;1.35;;
4889;SDS011;2459;42.268;23.112;2023-03-19T12:57:53;2.00;;;1.42;;
4889;SDS011;2459;42.268;23.112;2023-03-19T13:00:21;1.70;;;1.60;;
4889;SDS011;2459;42.268;23.112;2023-03-19T13:02:52;2.55;;;1.63;;
4889;SDS011;2459;42.268;23.112;2023-03-19T13:05:24;3.88;;;1.30;;
4889;SDS011;2459;42.268;23.112;2023-03-19T13:07:54;1.27;;;1.17;;
4889;SDS011;2459;42.268;23.112;2023-03-19T13:10:24;1.88;;;1.23;;
4889;SDS011;2459;42.268;23.112;2023-03-19T13:12:51;2.92;;;1.20;;
4889;SDS011;2459;42.268;23.112;2023-03-19T13:15:19;1.67;;;1.58;;
4889;SDS011;2459;42.268;23.112;2023-03-19T13:17:51;4.00;;;1.23;;
4889;SDS011;2459;42.268;23.112;2023-03-19T13:20:23;2.70;;;2.10;;
4889;SDS011;2459;42.268;23.112;2023-03-19T13:22:52;4.53;;;1.87;;
4889;SDS011;2459;42.268;23.112;2023-03-19T13:25:21;8.17;;;2.20;;
4889;SDS011;2459;42.268;23.112;2023-03-19T13:27:52;4.83;;;2.73;;
4889;SDS011;2459;42.268;23.112;2023-03-19T13:30:19;4.40;;;2.40;;
4889;SDS011;2459;42.268;23.112;2023-03-19T13:32:47;2.67;;;1.60;;
4889;SDS011;2459;42.268;23.112;2023-03-19T13:37:58;1.80;;;1.70;;
4889;SDS011;2459;42.268;23.112;2023-03-19T13:40:36;11.10;;;7.30;;
4889;SDS011;2459;42.268;23.112;2023-03-19T13:43:04;11.20;;;2.93;;
4889;SDS011;2459;42.268;23.112;2023-03-19T13:45:45;2.40;;;1.73;;
4889;SDS011;2459;42.268;23.112;2023-03-19T13:48:23;7.90;;;2.67;;
4889;SDS011;2459;42.268;23.112;2023-03-19T13:50:59;1.60;;;1.30;;
4889;SDS011;2459;42.268;23.112;2023-03-19T13:56:11;2.23;;;1.20;;
4889;SDS011;2459;42.268;23.112;2023-03-19T13:58:46;4.97;;;4.00;;
4889;SDS011;2459;42.268;23.112;2023-03-19T14:03:58;21.23;;;2.73;;
4889;SDS011;2459;42.268;23.112;2023-03-19T14:06:32;3.50;;;2.47;;
4889;SDS011;2459;42.268;23.112;2023-03-19T14:08:59;3.07;;;2.37;;
4889;SDS011;2459;42.268;23.112;2023-03-19T14:11:28;3.10;;;2.30;;
4889;SDS011;2459;42.268;23.112;2023-03-19T14:13:56;3.70;;;2.57;;
4889;SDS011;2459;42.268;23.112;2023-03-19T14:16:28;5.90;;;2.40;;
4889;SDS011;2459;42.268;23.112;2023-03-19T14:18:55;13.43;;;3.07;;
4889;SDS011;2459;42.268;23.112;2023-03-19T14:21:32;5.70;;;2.30;;
4889;SDS011;2459;42.268;23.112;2023-03-19T14:26:40;2.40;;;1.80;;
4889;SDS011;2459;42.268;23.112;2023-03-19T14:29:12;2.17;;;1.97;;
4889;SDS011;2459;42.268;23.112;2023-03-19T14:31:40;2.30;;;1.40;;
4889;SDS011;2459;42.268;23.112;2023-03-19T14:34:16;12.13;;;5.30;;
4889;SDS011;2459;42.268;23.112;2023-03-19T14:36:44;9.77;;;2.70;;
4889;SDS011;2459;42.268;23.112;2023-03-19T14:39:15;3.67;;;2.70;;
4889;SDS011;2459;42.268;23.112;2023-03-19T14:41:43;24.80;;;3.90;;
4889;SDS011;2459;42.268;23.112;2023-03-19T14:44:19;3.23;;;2.60;;
4889;SDS011;2459;42.268;23.112;2023-03-19T14:47:01;3.13;;;2.30;;
4889;SDS011;2459;42.268;23.112;2023-03-19T14:49:41;3.43;;;2.40;;
4889;SDS011;2459;42.268;23.112;2023-03-19T14:52:11;4.47;;;2.50;;
4889;SDS011;2459;42.268;23.112;2023-03-19T14:54:39;8.67;;;2.73;;
4889;SDS011;2459;42.268;23.112;2023-03-19T14:57:07;4.30;;;2.90;;
4889;SDS011;2459;42.268;23.112;2023-03-19T14:59:41;7.70;;;3.43;;
4889;SDS011;2459;42.268;23.112;2023-03-19T15:02:16;8.23;;;2.93;;
4889;SDS011;2459;42.268;23.112;2023-03-19T15:04:44;3.37;;;2.37;;
4889;SDS011;2459;42.268;23.112;2023-03-19T15:07:14;3.00;;;2.40;;
4889;SDS011;2459;42.268;23.112;2023-03-19T15:09:42;6.03;;;3.20;;
4889;SDS011;2459;42.268;23.112;2023-03-19T15:12:14;3.80;;;3.30;;
4889;SDS011;2459;42.268;23.112;2023-03-19T15:14:50;12.80;;;5.53;;
4889;SDS011;2459;42.268;23.112;2023-03-19T15:17:22;5.20;;;3.63;;